createdAt,value
2022-08-26T00:01:56.701Z,20.58
2022-08-26T00:06:59.695Z,20.51
2022-08-26T00:12:02.706Z,20.46
2022-08-26T00:17:05.720Z,20.41
2022-08-26T00:22:11.620Z,20.36
2022-08-26T00:27:14.523Z,20.33
2022-08-26T00:32:17.248Z,20.28
2022-08-26T00:37:20.516Z,20.26
2022-08-26T00:42:23.308Z,20.26
2022-08-26T00:47:34.430Z,20.22
2022-08-26T00:52:37.941Z,20.17
2022-08-26T00:57:42.281Z,20.15
2022-08-26T01:02:48.179Z,20.14
2022-08-26T01:07:52.379Z,20.09
2022-08-26T01:13:00.661Z,20.03
2022-08-26T01:18:06.187Z,19.96
2022-08-26T01:23:11.745Z,19.90
2022-08-26T01:28:21.785Z,19.84
2022-08-26T01:33:40.027Z,19.76
2022-08-26T01:38:45.519Z,19.69
2022-08-26T01:43:52.875Z,19.63
2022-08-26T01:48:58.694Z,19.55
2022-08-26T01:54:02.040Z,19.45
2022-08-26T01:59:09.360Z,19.34
2022-08-26T02:04:24.462Z,19.25
2022-08-26T02:09:27.378Z,19.18
2022-08-26T02:14:34.793Z,19.13
2022-08-26T02:19:41.985Z,19.12
2022-08-26T02:25:16.270Z,19.11
2022-08-26T02:30:26.141Z,19.09
2022-08-26T02:35:33.760Z,19.07
2022-08-26T02:40:41.091Z,19.08
2022-08-26T02:45:44.943Z,19.09
2022-08-26T02:50:48.833Z,19.11
2022-08-26T02:55:51.836Z,19.16
2022-08-26T03:00:54.761Z,19.20
2022-08-26T03:05:58.162Z,19.24
2022-08-26T03:11:01.650Z,19.26
2022-08-26T03:16:06.045Z,19.27
2022-08-26T03:21:12.077Z,19.28
2022-08-26T03:26:16.207Z,19.30
2022-08-26T03:31:19.022Z,19.30
2022-08-26T03:36:27.749Z,19.32
2022-08-26T03:41:33.007Z,19.36
2022-08-26T03:46:35.882Z,19.38
2022-08-26T03:51:39.113Z,19.35
2022-08-26T03:56:42.002Z,19.28
2022-08-26T04:01:45.429Z,19.08
2022-08-26T04:06:48.488Z,18.83
2022-08-26T04:11:52.898Z,18.65
2022-08-26T04:16:56.341Z,18.56
2022-08-26T04:22:00.180Z,18.55
2022-08-26T04:27:03.792Z,18.57
2022-08-26T04:32:08.874Z,18.68
2022-08-26T04:37:13.309Z,18.84
2022-08-26T04:42:19.950Z,18.98
2022-08-26T04:47:32.206Z,19.07
2022-08-26T04:52:36.904Z,19.15
2022-08-26T04:57:40.664Z,19.25
2022-08-26T05:02:43.839Z,19.33
2022-08-26T05:07:46.618Z,19.43
2022-08-26T05:12:49.805Z,19.59
2022-08-26T05:17:53.089Z,19.73
2022-08-26T05:22:55.818Z,20.03
2022-08-26T05:27:58.522Z,20.61
2022-08-26T05:33:01.983Z,21.70
2022-08-26T05:38:12.470Z,22.52
2022-08-26T05:43:17.080Z,23.41
2022-08-26T05:48:24.417Z,24.26
2022-08-26T05:53:27.924Z,25.23
2022-08-26T05:58:31.056Z,25.95
2022-08-26T06:03:37.487Z,26.50
2022-08-26T06:08:40.991Z,27.37
2022-08-26T06:13:44.827Z,28.21
2022-08-26T06:18:48.451Z,28.71
2022-08-26T06:24:12.447Z,28.90
2022-08-26T06:29:24.340Z,29.00
2022-08-26T06:34:29.858Z,28.45
2022-08-26T06:39:34.176Z,27.46
2022-08-26T06:44:37.187Z,27.26
2022-08-26T06:49:44.293Z,28.16
2022-08-26T06:54:47.616Z,28.12
2022-08-26T06:59:51.185Z,29.27
2022-08-26T07:04:54.096Z,30.85
2022-08-26T07:09:59.971Z,31.67
2022-08-26T07:15:03.024Z,32.52
2022-08-26T07:20:08.532Z,33.18
2022-08-26T07:25:11.536Z,33.56
2022-08-26T07:30:15.007Z,33.91
2022-08-26T07:35:18.204Z,34.37
2022-08-26T07:40:22.397Z,35.00
2022-08-26T07:45:25.862Z,35.60
2022-08-26T07:50:49.504Z,36.11
2022-08-26T07:55:52.027Z,35.97
2022-08-26T08:00:55.351Z,34.67
2022-08-26T08:05:58.079Z,33.44
2022-08-26T08:11:01.551Z,32.80
2022-08-26T08:16:05.885Z,32.29
2022-08-26T08:21:22.084Z,31.75
2022-08-26T08:26:27.718Z,32.50
2022-08-26T08:31:55.864Z,35.18
2022-08-26T08:36:58.082Z,36.47
2022-08-26T08:42:19.139Z,36.87
2022-08-26T08:47:34.296Z,35.93
2022-08-26T08:52:39.245Z,36.05
2022-08-26T08:58:03.789Z,37.02
2022-08-26T09:03:19.741Z,37.72
2022-08-26T09:08:28.505Z,35.95
2022-08-26T09:13:31.749Z,34.78
2022-08-26T09:18:57.372Z,34.42
2022-08-26T09:24:00.913Z,34.14
2022-08-26T09:29:16.083Z,34.05
2022-08-26T09:34:19.089Z,33.85
2022-08-26T09:39:27.859Z,36.61
2022-08-26T09:44:32.054Z,40.46
2022-08-26T09:49:41.160Z,40.10
2022-08-26T09:54:46.111Z,39.78
2022-08-26T09:59:49.691Z,40.23
2022-08-26T10:04:55.789Z,38.59
2022-08-26T10:09:59.477Z,37.49
2022-08-26T10:15:10.650Z,37.87
2022-08-26T10:20:24.068Z,40.50
2022-08-26T10:25:33.502Z,42.94
2022-08-26T10:31:00.860Z,43.44
2022-08-26T10:36:30.272Z,43.11
2022-08-26T10:41:40.912Z,40.71
2022-08-26T10:46:58.983Z,38.47
2022-08-26T10:52:19.859Z,36.91
2022-08-26T10:57:34.117Z,35.98
2022-08-26T11:02:47.085Z,35.45
2022-08-26T11:08:13.781Z,35.16
2022-08-26T11:13:16.547Z,34.63
2022-08-26T11:18:41.230Z,34.27
2022-08-26T11:23:50.252Z,34.14
2022-08-26T11:28:53.679Z,34.01
2022-08-26T11:34:39.438Z,34.73
2022-08-26T11:39:54.967Z,37.49
2022-08-26T11:45:03.543Z,39.85
2022-08-26T11:50:12.890Z,42.77
2022-08-26T11:55:17.290Z,45.24
2022-08-26T12:00:33.291Z,46.22
2022-08-26T12:05:44.582Z,47.67
2022-08-26T12:10:50.848Z,48.38
2022-08-26T12:15:57.310Z,49.26
2022-08-26T12:21:24.406Z,49.62
2022-08-26T12:26:35.338Z,48.12
2022-08-26T12:31:44.130Z,45.79
2022-08-26T12:36:55.950Z,44.36
2022-08-26T12:42:03.296Z,43.37
2022-08-26T12:47:40.080Z,41.32
2022-08-26T12:53:12.490Z,38.85
2022-08-26T12:58:15.646Z,37.65
2022-08-26T13:03:46.153Z,36.88
2022-08-26T13:09:10.360Z,36.40
2022-08-26T13:14:23.834Z,36.23
2022-08-26T13:19:27.346Z,36.40
2022-08-26T13:24:34.533Z,36.50
2022-08-26T13:29:37.542Z,37.22
2022-08-26T13:34:40.630Z,38.02
2022-08-26T13:39:43.560Z,38.50
2022-08-26T13:44:50.860Z,39.30
2022-08-26T13:49:53.870Z,40.75
2022-08-26T13:54:56.881Z,41.44
2022-08-26T13:59:59.887Z,41.09
2022-08-26T14:05:03.094Z,40.11
2022-08-26T14:10:07.234Z,39.20
2022-08-26T14:15:10.832Z,38.32
2022-08-26T14:20:19.083Z,37.48
2022-08-26T14:25:22.907Z,36.71
2022-08-26T14:30:26.014Z,36.25
2022-08-26T14:35:31.070Z,35.78
2022-08-26T14:40:37.534Z,35.67
2022-08-26T14:45:44.360Z,36.25
2022-08-26T14:50:47.365Z,36.83
2022-08-26T14:55:50.688Z,37.17
2022-08-26T15:00:53.581Z,37.40
2022-08-26T15:05:56.955Z,37.60
2022-08-26T15:10:59.902Z,37.62
2022-08-26T15:16:03.161Z,37.58
2022-08-26T15:21:07.505Z,37.48
2022-08-26T15:26:12.174Z,37.30
2022-08-26T15:31:15.663Z,37.00
2022-08-26T15:36:18.835Z,36.75
2022-08-26T15:41:22.407Z,36.53
2022-08-26T15:46:25.525Z,36.27
2022-08-26T15:51:36.011Z,35.94
2022-08-26T15:56:51.901Z,35.61
2022-08-26T16:01:56.229Z,35.37
2022-08-26T16:06:59.602Z,35.04
2022-08-26T16:12:02.866Z,34.65
2022-08-26T16:17:06.024Z,34.22
2022-08-26T16:22:09.395Z,33.80
2022-08-26T16:27:13.370Z,33.31
2022-08-26T16:32:16.376Z,32.90
2022-08-26T16:37:19.382Z,32.59
2022-08-26T16:42:22.880Z,32.28
2022-08-26T16:47:26.590Z,31.92
2022-08-26T16:52:30.351Z,31.56
2022-08-26T16:57:37.558Z,31.19
2022-08-26T17:02:41.961Z,30.74
2022-08-26T17:07:45.002Z,30.33
2022-08-26T17:12:48.315Z,29.91
2022-08-26T17:17:52.656Z,29.49
2022-08-26T17:22:56.624Z,29.09
2022-08-26T17:27:59.779Z,28.66
2022-08-26T17:33:11.046Z,28.24
2022-08-26T17:38:14.199Z,27.80
2022-08-26T17:43:17.965Z,27.38
2022-08-26T17:48:20.658Z,27.02
2022-08-26T17:53:24.711Z,26.80
2022-08-26T17:58:27.456Z,26.66
2022-08-26T18:03:32.321Z,26.50
2022-08-26T18:08:35.212Z,26.38
2022-08-26T18:13:38.595Z,26.30
2022-08-26T18:18:53.581Z,26.21
2022-08-26T18:23:57.019Z,26.03
2022-08-26T18:29:00.523Z,25.83
2022-08-26T18:34:03.950Z,25.68
2022-08-26T18:39:08.425Z,25.57
2022-08-26T18:44:13.980Z,25.46
2022-08-26T18:49:19.086Z,25.32
2022-08-26T18:54:22.554Z,25.26
2022-08-26T18:59:29.493Z,25.19
2022-08-26T19:04:34.115Z,25.09
2022-08-26T19:09:37.179Z,24.90
2022-08-26T19:14:41.325Z,24.65
2022-08-26T19:19:44.068Z,24.39
2022-08-26T19:24:48.347Z,24.15
2022-08-26T19:29:51.377Z,23.98
2022-08-26T19:34:54.456Z,23.84
2022-08-26T19:39:57.303Z,23.69
2022-08-26T19:45:24.346Z,23.56
2022-08-26T19:50:30.711Z,23.43
2022-08-26T19:55:33.846Z,23.30
2022-08-26T20:00:39.853Z,23.14
2022-08-26T20:05:42.566Z,23.01
2022-08-26T20:10:46.807Z,22.88
2022-08-26T20:15:49.576Z,22.73
2022-08-26T20:21:12.250Z,22.60
2022-08-26T20:26:15.153Z,22.50
2022-08-26T20:31:19.584Z,22.41
2022-08-26T20:36:26.993Z,22.30
2022-08-26T20:41:30.019Z,22.17
2022-08-26T20:46:34.850Z,22.04
2022-08-26T20:51:37.970Z,21.89
2022-08-26T20:56:40.979Z,21.74
2022-08-26T21:01:44.515Z,21.59
2022-08-26T21:06:52.438Z,21.44
2022-08-26T21:11:56.347Z,21.30
2022-08-26T21:16:59.867Z,21.20
2022-08-26T21:22:02.773Z,21.10
2022-08-26T21:27:05.676Z,21.01
2022-08-26T21:32:08.724Z,20.97
2022-08-26T21:37:16.666Z,20.94
2022-08-26T21:42:21.023Z,20.93
2022-08-26T21:47:24.718Z,20.90
2022-08-26T21:52:27.834Z,20.85
2022-08-26T21:57:32.629Z,20.80
2022-08-26T22:02:37.192Z,20.73
2022-08-26T22:07:40.283Z,20.66
2022-08-26T22:12:43.488Z,20.58
2022-08-26T22:17:46.805Z,20.50
2022-08-26T22:22:49.707Z,20.43
2022-08-26T22:27:52.817Z,20.37
2022-08-26T22:32:55.823Z,20.34
2022-08-26T22:37:59.860Z,20.33
2022-08-26T22:43:04.810Z,20.31
2022-08-26T22:48:08.173Z,20.28
2022-08-26T22:53:11.949Z,20.23
2022-08-26T22:58:17.516Z,20.18
2022-08-26T23:03:20.855Z,20.11
2022-08-26T23:08:27.623Z,20.05
2022-08-26T23:13:30.635Z,20.03
2022-08-26T23:18:33.645Z,19.98
2022-08-26T23:23:38.107Z,19.95
2022-08-26T23:28:41.095Z,19.93
2022-08-26T23:34:02.742Z,19.89
2022-08-26T23:39:06.356Z,19.84
2022-08-26T23:44:09.257Z,19.78
2022-08-26T23:49:12.266Z,19.73
2022-08-26T23:54:16.192Z,19.69
2022-08-26T23:59:19.301Z,19.63
